createdAt,value
2023-04-05T00:00:22.392Z,99248.72
2023-04-05T00:02:30.046Z,99249.53
2023-04-05T00:04:34.898Z,99243.53
2023-04-05T00:06:40.196Z,99243.84
2023-04-05T00:08:44.544Z,99245.50
2023-04-05T00:10:47.132Z,99237.56
2023-04-05T00:12:51.091Z,99239.50
2023-04-05T00:14:53.714Z,99247.44
2023-04-05T00:16:56.635Z,99230.47
2023-04-05T00:19:00.422Z,99238.84
2023-04-05T00:21:03.308Z,99237.09
2023-04-05T00:23:07.042Z,99235.31
2023-04-05T00:25:10.022Z,99241.13
2023-04-05T00:27:12.719Z,99239.19
2023-04-05T00:29:15.483Z,99230.63
2023-04-05T00:31:18.839Z,99225.47
2023-04-05T00:33:21.486Z,99236.44
2023-04-05T00:35:28.438Z,99237.09
2023-04-05T00:37:31.054Z,99233.53
2023-04-05T00:39:33.707Z,99240.19
2023-04-05T00:41:36.985Z,99234.19
2023-04-05T00:43:39.740Z,99240.66
2023-04-05T00:45:42.845Z,99236.28
2023-04-05T00:47:45.758Z,99223.88
2023-04-05T00:49:48.527Z,99237.25
2023-04-05T00:51:51.209Z,99234.88
2023-04-05T00:53:54.637Z,99232.91
2023-04-05T00:55:58.326Z,99231.63
2023-04-05T00:58:01.240Z,99231.31
2023-04-05T01:00:09.617Z,99236.16
2023-04-05T01:02:32.075Z,99226.16
2023-04-05T01:04:37.037Z,99244.06
2023-04-05T01:06:51.040Z,99234.38
2023-04-05T01:09:08.895Z,99233.22
2023-04-05T01:11:13.653Z,99235.19
2023-04-05T01:13:17.674Z,99237.13
2023-04-05T01:15:20.836Z,99223.22
2023-04-05T01:17:28.551Z,99234.69
2023-04-05T01:19:31.535Z,99222.75
2023-04-05T01:21:39.979Z,99225.97
2023-04-05T01:24:10.111Z,99221.47
2023-04-05T01:26:46.856Z,99230.97
2023-04-05T01:29:18.004Z,99222.59
2023-04-05T01:31:29.632Z,99231.94
2023-04-05T01:33:44.365Z,99225.16
2023-04-05T01:36:10.447Z,99223.22
2023-04-05T01:38:19.340Z,99227.13
2023-04-05T01:40:23.283Z,99217.91
2023-04-05T01:42:26.829Z,99224.19
2023-04-05T01:44:30.204Z,99222.28
2023-04-05T01:46:33.041Z,99213.22
2023-04-05T01:48:35.809Z,99217.91
2023-04-05T01:50:38.959Z,99216.31
2023-04-05T01:52:42.611Z,99217.59
2023-04-05T01:54:45.558Z,99218.09
2023-04-05T01:56:48.247Z,99213.88
2023-04-05T01:58:51.341Z,99213.72
2023-04-05T02:00:57.706Z,99208.53
2023-04-05T02:03:00.586Z,99208.69
2023-04-05T02:05:03.348Z,99214.63
2023-04-05T02:07:06.309Z,99213.84
2023-04-05T02:09:09.034Z,99220.59
2023-04-05T02:11:11.798Z,99215.94
2023-04-05T02:13:14.576Z,99216.25
2023-04-05T02:15:17.365Z,99210.47
2023-04-05T02:17:20.151Z,99219.97
2023-04-05T02:19:23.898Z,99212.06
2023-04-05T02:21:26.936Z,99215.59
2023-04-05T02:23:30.733Z,99210.91
2023-04-05T02:25:33.487Z,99212.53
2023-04-05T02:27:37.597Z,99210.59
2023-04-05T02:29:40.379Z,99210.09
2023-04-05T02:31:43.137Z,99214.13
2023-04-05T02:33:45.847Z,99212.41
2023-04-05T02:35:51.921Z,99222.41
2023-04-05T02:37:54.873Z,99229.97
2023-04-05T02:39:57.442Z,99221.09
2023-04-05T02:42:00.220Z,99221.91
2023-04-05T02:44:03.273Z,99213.66
2023-04-05T02:46:06.117Z,99217.53
2023-04-05T02:48:09.027Z,99221.72
2023-04-05T02:50:11.819Z,99212.88
2023-04-05T02:52:15.278Z,99221.13
2023-04-05T02:54:17.940Z,99224.00
2023-04-05T02:56:22.280Z,99225.47
2023-04-05T02:58:25.093Z,99225.97
2023-04-05T03:00:28.403Z,99231.44
2023-04-05T03:02:31.723Z,99224.69
2023-04-05T03:04:34.692Z,99217.06
2023-04-05T03:06:38.619Z,99224.03
2023-04-05T03:08:46.660Z,99222.09
2023-04-05T03:10:51.807Z,99219.38
2023-04-05T03:12:54.557Z,99218.53
2023-04-05T03:14:57.183Z,99220.78
2023-04-05T03:16:59.909Z,99213.53
2023-04-05T03:19:02.725Z,99219.84
2023-04-05T03:21:06.202Z,99215.81
2023-04-05T03:23:09.547Z,99222.13
2023-04-05T03:25:12.209Z,99216.28
2023-04-05T03:27:15.914Z,99222.59
2023-04-05T03:29:18.583Z,99217.09
2023-04-05T03:31:21.849Z,99211.28
2023-04-05T03:33:24.892Z,99215.16
2023-04-05T03:35:31.285Z,99213.34
2023-04-05T03:37:33.957Z,99214.31
2023-04-05T03:39:37.104Z,99217.69
2023-04-05T03:41:40.712Z,99214.81
2023-04-05T03:43:43.379Z,99222.88
2023-04-05T03:45:46.212Z,99217.53
2023-04-05T03:47:48.933Z,99208.47
2023-04-05T03:49:51.671Z,99210.53
2023-04-05T03:51:54.454Z,99211.63
2023-04-05T03:53:57.113Z,99214.69
2023-04-05T03:55:59.844Z,99214.03
2023-04-05T03:58:02.645Z,99218.56
2023-04-05T04:00:15.148Z,99216.41
2023-04-05T04:02:17.923Z,99212.84
2023-04-05T04:04:21.176Z,99214.09
2023-04-05T04:06:27.447Z,99217.47
2023-04-05T04:08:30.838Z,99211.44
2023-04-05T04:10:35.200Z,99209.97
2023-04-05T04:12:38.796Z,99209.44
2023-04-05T04:14:41.535Z,99199.84
2023-04-05T04:16:44.176Z,99201.75
2023-04-05T04:18:46.908Z,99205.56
2023-04-05T04:20:49.703Z,99199.44
2023-04-05T04:22:54.090Z,99202.78
2023-04-05T04:24:56.821Z,99202.09
2023-04-05T04:26:59.622Z,99194.91
2023-04-05T04:29:03.541Z,99201.84
2023-04-05T04:31:09.325Z,99201.28
2023-04-05T04:33:12.157Z,99197.38
2023-04-05T04:35:21.007Z,99203.97
2023-04-05T04:37:30.326Z,99197.47
2023-04-05T04:39:33.101Z,99196.56
2023-04-05T04:41:38.416Z,99203.16
2023-04-05T04:43:44.918Z,99198.03
2023-04-05T04:45:48.643Z,99201.75
2023-04-05T04:47:53.879Z,99206.66
2023-04-05T04:49:57.589Z,99208.22
2023-04-05T04:52:00.464Z,99203.19
2023-04-05T04:54:03.228Z,99207.44
2023-04-05T04:56:09.248Z,99203.66
2023-04-05T04:58:13.880Z,99201.63
2023-04-05T05:00:17.020Z,99205.06
2023-04-05T05:02:24.305Z,99198.97
2023-04-05T05:04:27.110Z,99208.75
2023-04-05T05:06:30.089Z,99202.75
2023-04-05T05:08:32.893Z,99213.91
2023-04-05T05:10:36.015Z,99212.97
2023-04-05T05:12:39.306Z,99220.69
2023-04-05T05:14:42.149Z,99217.69
2023-04-05T05:16:44.875Z,99203.22
2023-04-05T05:18:48.742Z,99217.06
2023-04-05T05:20:52.365Z,99221.09
2023-04-05T05:22:55.809Z,99216.94
2023-04-05T05:24:58.396Z,99220.63
2023-04-05T05:27:01.039Z,99219.66
2023-04-05T05:29:04.384Z,99215.59
2023-04-05T05:31:07.081Z,99212.34
2023-04-05T05:33:10.081Z,99219.25
2023-04-05T05:35:12.811Z,99211.97
2023-04-05T05:37:16.840Z,99214.69
2023-04-05T05:39:20.764Z,99219.28
2023-04-05T05:41:24.337Z,99227.13
2023-04-05T05:43:27.195Z,99219.44
2023-04-05T05:45:29.975Z,99214.44
2023-04-05T05:47:32.994Z,99213.72
2023-04-05T05:49:35.905Z,99223.81
2023-04-05T05:51:38.558Z,99216.31
2023-04-05T05:53:41.315Z,99221.38
2023-04-05T05:55:44.026Z,99218.63
2023-04-05T05:57:46.860Z,99214.56
2023-04-05T05:59:49.510Z,99213.28
2023-04-05T06:01:52.447Z,99225.25
2023-04-05T06:03:55.628Z,99218.63
2023-04-05T06:06:00.034Z,99217.53
2023-04-05T06:08:04.128Z,99214.03
2023-04-05T06:10:07.809Z,99216.59
2023-04-05T06:12:11.466Z,99211.28
2023-04-05T06:14:14.209Z,99224.63
2023-04-05T06:16:17.321Z,99218.09
2023-04-05T06:18:21.795Z,99222.59
2023-04-05T06:20:24.800Z,99222.06
2023-04-05T06:22:27.786Z,99229.41
2023-04-05T06:24:32.288Z,99222.09
2023-04-05T06:26:35.397Z,99224.91
2023-04-05T06:28:38.260Z,99229.81
2023-04-05T06:30:41.323Z,99213.72
2023-04-05T06:32:44.548Z,99224.66
2023-04-05T06:34:49.275Z,99222.03
2023-04-05T06:36:52.160Z,99222.19
2023-04-05T06:38:54.882Z,99219.59
2023-04-05T06:40:57.514Z,99222.53
2023-04-05T06:43:00.412Z,99219.78
2023-04-05T06:45:04.513Z,99223.78
2023-04-05T06:47:07.244Z,99220.97
2023-04-05T06:49:10.136Z,99214.56
2023-04-05T06:51:12.867Z,99220.88
2023-04-05T06:53:19.904Z,99216.16
2023-04-05T06:55:22.593Z,99213.78
2023-04-05T06:57:25.466Z,99217.38
2023-04-05T06:59:30.743Z,99215.78
2023-04-05T07:01:37.257Z,99202.88
2023-04-05T07:03:40.124Z,99212.94
2023-04-05T07:05:50.945Z,99202.56
2023-04-05T07:07:53.684Z,99216.13
2023-04-05T07:09:56.741Z,99221.69
2023-04-05T07:12:00.235Z,99213.69
2023-04-05T07:14:02.987Z,99221.25
2023-04-05T07:16:05.946Z,99215.31
2023-04-05T07:18:08.843Z,99219.31
2023-04-05T07:20:12.169Z,99219.38
2023-04-05T07:22:14.902Z,99213.00
2023-04-05T07:24:17.575Z,99213.00
2023-04-05T07:26:20.344Z,99208.22
2023-04-05T07:28:23.178Z,99219.75
2023-04-05T07:30:29.213Z,99212.59
2023-04-05T07:32:31.951Z,99213.88
2023-04-05T07:34:36.829Z,99219.84
2023-04-05T07:36:39.641Z,99210.78
2023-04-05T07:38:42.507Z,99217.28
2023-04-05T07:40:45.177Z,99210.91
2023-04-05T07:42:47.910Z,99214.91
2023-04-05T07:44:50.610Z,99206.69
2023-04-05T07:46:53.369Z,99204.03
2023-04-05T07:48:56.240Z,99208.00
2023-04-05T07:51:04.343Z,99208.03
2023-04-05T07:53:08.430Z,99203.34
2023-04-05T07:55:11.121Z,99207.31
2023-04-05T07:57:19.133Z,99200.91
2023-04-05T07:59:22.338Z,99197.78
2023-04-05T08:01:28.116Z,99199.06
2023-04-05T08:03:32.402Z,99199.47
2023-04-05T08:05:35.156Z,99194.00
2023-04-05T08:07:37.901Z,99195.94
2023-04-05T08:09:40.749Z,99190.78
2023-04-05T08:11:43.730Z,99196.38
2023-04-05T08:13:47.094Z,99194.81
2023-04-05T08:15:49.748Z,99203.63
2023-04-05T08:17:52.828Z,99190.94
2023-04-05T08:19:55.696Z,99193.44
2023-04-05T08:21:58.374Z,99196.09
2023-04-05T08:24:01.145Z,99195.63
2023-04-05T08:26:04.213Z,99188.59
2023-04-05T08:28:06.961Z,99193.88
2023-04-05T08:30:10.422Z,99193.56
2023-04-05T08:32:13.269Z,99197.97
2023-04-05T08:34:16.084Z,99206.69
2023-04-05T08:36:18.741Z,99198.72
2023-04-05T08:38:21.812Z,99198.31
2023-04-05T08:40:33.535Z,99197.09
2023-04-05T08:42:42.415Z,99191.19
2023-04-05T08:44:46.746Z,99198.84
2023-04-05T08:46:50.827Z,99200.91
2023-04-05T08:48:53.689Z,99196.63
2023-04-05T08:50:56.541Z,99193.13
2023-04-05T08:52:59.123Z,99189.47
2023-04-05T08:55:01.754Z,99198.75
2023-04-05T08:57:07.421Z,99190.44
2023-04-05T08:59:11.812Z,99188.88
2023-04-05T09:01:15.312Z,99200.38
2023-04-05T09:03:24.361Z,99186.09
2023-04-05T09:05:27.566Z,99183.41
2023-04-05T09:07:31.625Z,99188.69
2023-04-05T09:09:38.082Z,99194.31
2023-04-05T09:11:41.086Z,99183.19
2023-04-05T09:13:43.808Z,99190.81
2023-04-05T09:15:47.045Z,99189.53
2023-04-05T09:17:50.928Z,99193.00
2023-04-05T09:19:53.554Z,99190.97
2023-04-05T09:22:04.050Z,99189.91
2023-04-05T09:24:07.129Z,99187.56
2023-04-05T09:26:25.942Z,99189.97
2023-04-05T09:28:42.659Z,99187.56
2023-04-05T09:30:48.546Z,99192.22
2023-04-05T09:32:53.282Z,99188.09
2023-04-05T09:35:01.594Z,99188.56
2023-04-05T09:37:16.356Z,99197.75
2023-04-05T09:39:23.357Z,99196.94
2023-04-05T09:41:26.656Z,99189.72
2023-04-05T09:43:43.019Z,99178.69
2023-04-05T09:45:46.366Z,99187.81
2023-04-05T09:47:57.676Z,99174.72
2023-04-05T09:50:06.612Z,99182.75
2023-04-05T09:52:41.473Z,99187.47
2023-04-05T09:54:44.167Z,99181.88
2023-04-05T09:56:57.090Z,99176.78
2023-04-05T09:59:01.939Z,99182.78
2023-04-05T10:01:16.250Z,99184.97
2023-04-05T10:03:21.211Z,99174.53
2023-04-05T10:05:26.053Z,99179.38
2023-04-05T10:07:29.578Z,99175.06
2023-04-05T10:09:35.533Z,99180.75
2023-04-05T10:11:39.883Z,99182.06
2023-04-05T10:13:42.863Z,99170.94
2023-04-05T10:15:47.719Z,99169.38
2023-04-05T10:18:00.954Z,99176.28
2023-04-05T10:20:28.333Z,99177.16
2023-04-05T10:22:41.272Z,99169.63
2023-04-05T10:24:53.033Z,99170.84
2023-04-05T10:27:05.780Z,99176.03
2023-04-05T10:29:35.896Z,99169.19
2023-04-05T10:32:21.886Z,99172.31
2023-04-05T10:35:13.992Z,99161.13
2023-04-05T10:37:48.508Z,99168.25
2023-04-05T10:39:51.964Z,99173.13
2023-04-05T10:42:22.178Z,99157.22
2023-04-05T10:44:26.692Z,99156.06
2023-04-05T10:46:31.959Z,99163.66
2023-04-05T10:48:52.574Z,99160.91
2023-04-05T10:50:57.222Z,99163.31
2023-04-05T10:53:01.139Z,99163.31
2023-04-05T10:55:04.970Z,99162.09
2023-04-05T10:57:10.410Z,99157.28
2023-04-05T10:59:14.274Z,99164.44
2023-04-05T11:01:19.039Z,99164.84
2023-04-05T11:03:50.781Z,99165.69
2023-04-05T11:06:20.561Z,99158.13
2023-04-05T11:08:23.986Z,99160.50
2023-04-05T11:10:28.376Z,99162.06
2023-04-05T11:12:48.766Z,99162.06
2023-04-05T11:14:52.765Z,99156.13
2023-04-05T11:17:00.227Z,99155.31
2023-04-05T11:19:03.016Z,99164.47
2023-04-05T11:21:08.832Z,99159.28
2023-04-05T11:23:13.739Z,99157.72
2023-04-05T11:25:24.788Z,99158.13
2023-04-05T11:27:29.358Z,99157.69
2023-04-05T11:29:50.753Z,99150.84
2023-04-05T11:32:01.470Z,99163.22
2023-04-05T11:34:10.680Z,99163.72
2023-04-05T11:36:15.665Z,99162.88
2023-04-05T11:38:23.553Z,99165.66
2023-04-05T11:40:37.638Z,99157.19
2023-04-05T11:42:41.409Z,99155.13
2023-04-05T11:44:49.272Z,99161.09
2023-04-05T11:46:54.595Z,99155.56
2023-04-05T11:48:57.562Z,99154.41
2023-04-05T11:51:00.797Z,99155.63
2023-04-05T11:53:19.135Z,99150.06
2023-04-05T11:55:27.249Z,99154.47
2023-04-05T11:57:29.902Z,99156.09
2023-04-05T11:59:36.015Z,99150.84
2023-04-05T12:01:39.858Z,99157.63
2023-04-05T12:03:42.621Z,99153.59
2023-04-05T12:05:53.305Z,99151.22
2023-04-05T12:07:58.126Z,99147.19
2023-04-05T12:10:03.563Z,99144.84
2023-04-05T12:12:17.275Z,99158.00
2023-04-05T12:14:23.939Z,99145.19
2023-04-05T12:16:27.036Z,99162.19
2023-04-05T12:18:32.835Z,99149.84
2023-04-05T12:20:35.682Z,99149.41
2023-04-05T12:22:40.595Z,99138.53
2023-04-05T12:24:43.953Z,99153.44
2023-04-05T12:26:47.055Z,99142.78
2023-04-05T12:29:00.427Z,99139.13
2023-04-05T12:31:03.782Z,99144.31
2023-04-05T12:33:10.037Z,99146.31
2023-04-05T12:35:18.554Z,99142.72
2023-04-05T12:37:21.829Z,99145.69
2023-04-05T12:39:29.697Z,99140.03
2023-04-05T12:41:33.099Z,99144.13
2023-04-05T12:43:41.213Z,99150.09
2023-04-05T12:45:44.650Z,99149.69
2023-04-05T12:47:57.964Z,99145.78
2023-04-05T12:50:11.921Z,99152.19
2023-04-05T12:52:21.361Z,99141.44
2023-04-05T12:54:24.732Z,99156.19
2023-04-05T12:56:30.575Z,99151.53
2023-04-05T12:58:36.515Z,99149.91
2023-04-05T13:00:39.292Z,99156.41
2023-04-05T13:02:41.992Z,99147.19
2023-04-05T13:04:45.735Z,99149.91
2023-04-05T13:06:48.620Z,99151.50
2023-04-05T13:08:52.784Z,99154.75
2023-04-05T13:10:57.903Z,99145.13
2023-04-05T13:13:01.389Z,99149.97
2023-04-05T13:15:04.547Z,99151.13
2023-04-05T13:17:07.277Z,99150.75
2023-04-05T13:19:09.938Z,99144.34
2023-04-05T13:21:12.643Z,99150.78
2023-04-05T13:23:15.241Z,99152.75
2023-04-05T13:25:17.907Z,99152.34
2023-04-05T13:27:21.869Z,99151.13
2023-04-05T13:29:24.569Z,99143.38
2023-04-05T13:31:27.658Z,99151.47
2023-04-05T13:33:30.398Z,99150.63
2023-04-05T13:35:33.313Z,99151.41
2023-04-05T13:37:36.290Z,99149.09
2023-04-05T13:39:38.988Z,99153.00
2023-04-05T13:41:41.631Z,99151.78
2023-04-05T13:43:44.285Z,99145.28
2023-04-05T13:45:47.052Z,99139.97
2023-04-05T13:47:49.938Z,99144.44
2023-04-05T13:49:52.623Z,99151.38
2023-04-05T13:51:55.313Z,99136.53
2023-04-05T13:53:58.322Z,99143.28
2023-04-05T13:56:00.958Z,99141.75
2023-04-05T13:58:03.554Z,99147.06
2023-04-05T14:00:07.174Z,99150.34
2023-04-05T14:02:11.850Z,99147.19
2023-04-05T14:04:15.747Z,99144.00
2023-04-05T14:06:18.447Z,99147.59
2023-04-05T14:08:21.113Z,99148.53
2023-04-05T14:12:26.648Z,99145.34
2023-04-05T14:14:29.686Z,99146.53
2023-04-05T14:16:32.590Z,99142.91
2023-04-05T14:18:35.297Z,99147.69
2023-04-05T14:20:38.055Z,99153.28
2023-04-05T14:22:40.858Z,99154.44
2023-04-05T14:24:43.548Z,99141.63
2023-04-05T14:26:49.600Z,99134.72
2023-04-05T14:28:53.118Z,99149.91
2023-04-05T14:30:55.937Z,99163.41
2023-04-05T14:32:58.905Z,99149.00
2023-04-05T14:35:01.683Z,99149.41
2023-04-05T14:37:06.200Z,99150.53
2023-04-05T14:39:08.806Z,99149.31
2023-04-05T14:41:11.799Z,99155.63
2023-04-05T14:43:14.401Z,99156.31
2023-04-05T14:45:17.743Z,99153.88
2023-04-05T14:47:20.485Z,99152.66
2023-04-05T14:49:23.270Z,99154.56
2023-04-05T14:51:27.019Z,99151.38
2023-04-05T14:53:30.070Z,99162.00
2023-04-05T14:55:32.843Z,99159.22
2023-04-05T14:57:35.527Z,99162.38
2023-04-05T14:59:38.228Z,99154.81
2023-04-05T15:01:44.502Z,99154.31
2023-04-05T15:03:48.550Z,99153.06
2023-04-05T15:05:51.555Z,99171.19
2023-04-05T15:07:54.213Z,99165.56
2023-04-05T15:09:56.828Z,99157.94
2023-04-05T15:11:59.808Z,99168.50
2023-04-05T15:14:02.460Z,99160.78
2023-04-05T15:16:05.877Z,99167.78
2023-04-05T15:18:08.654Z,99173.97
2023-04-05T15:20:11.660Z,99171.88
2023-04-05T15:22:15.688Z,99167.38
2023-04-05T15:24:18.372Z,99174.91
2023-04-05T15:26:21.801Z,99187.50
2023-04-05T15:28:24.534Z,99180.28
2023-04-05T15:30:27.326Z,99178.28
2023-04-05T15:32:33.997Z,99177.38
2023-04-05T15:34:36.760Z,99190.88
2023-04-05T15:36:39.766Z,99185.28
2023-04-05T15:38:42.406Z,99194.81
2023-04-05T15:40:47.922Z,99188.78
2023-04-05T15:42:50.547Z,99197.44
2023-04-05T15:44:53.556Z,99194.19
2023-04-05T15:46:56.425Z,99199.22
2023-04-05T15:48:59.584Z,99195.56
2023-04-05T15:51:02.648Z,99198.66
2023-04-05T15:53:05.850Z,99202.44
2023-04-05T15:55:08.864Z,99209.41
2023-04-05T15:57:12.110Z,99208.50
2023-04-05T15:59:15.006Z,99214.00
2023-04-05T16:01:17.831Z,99215.47
2023-04-05T16:03:20.630Z,99223.22
2023-04-05T16:05:23.717Z,99221.97
2023-04-05T16:07:26.766Z,99217.44
2023-04-05T16:09:30.225Z,99220.03
2023-04-05T16:11:33.215Z,99217.19
2023-04-05T16:13:36.243Z,99220.25
2023-04-05T16:15:38.984Z,99224.44
2023-04-05T16:17:41.678Z,99228.16
2023-04-05T16:19:44.368Z,99230.28
2023-04-05T16:21:47.050Z,99235.97
2023-04-05T16:23:49.768Z,99231.19
2023-04-05T16:25:52.486Z,99232.25
2023-04-05T16:27:55.318Z,99233.69
2023-04-05T16:29:57.899Z,99226.47
2023-04-05T16:32:00.866Z,99230.69
2023-04-05T16:34:03.854Z,99229.72
2023-04-05T16:36:06.656Z,99232.34
2023-04-05T16:38:09.352Z,99233.41
2023-04-05T16:40:12.757Z,99235.66
2023-04-05T16:42:15.661Z,99238.72
2023-04-05T16:44:18.256Z,99240.59
2023-04-05T16:46:21.045Z,99239.69
2023-04-05T16:48:23.799Z,99239.97
2023-04-05T16:50:26.541Z,99238.63
2023-04-05T16:52:29.259Z,99244.16
2023-04-05T16:54:32.367Z,99249.97
2023-04-05T16:56:35.218Z,99254.59
2023-04-05T16:58:37.939Z,99252.53
2023-04-05T17:00:40.623Z,99244.41
2023-04-05T17:02:43.414Z,99251.19
2023-04-05T17:04:46.654Z,99245.25
2023-04-05T17:06:49.624Z,99264.16
2023-04-05T17:08:52.344Z,99249.41
2023-04-05T17:10:55.062Z,99256.47
2023-04-05T17:12:57.946Z,99265.47
2023-04-05T17:15:00.953Z,99251.88
2023-04-05T17:17:03.682Z,99252.13
2023-04-05T17:19:06.494Z,99263.91
2023-04-05T17:21:09.575Z,99258.25
2023-04-05T17:23:13.025Z,99257.38
2023-04-05T17:25:16.368Z,99259.69
2023-04-05T17:27:19.540Z,99254.84
2023-04-05T17:29:22.185Z,99253.97
2023-04-05T17:31:26.718Z,99258.59
2023-04-05T17:33:29.668Z,99264.38
2023-04-05T17:35:33.149Z,99264.25
2023-04-05T17:37:36.178Z,99266.16
2023-04-05T17:39:39.538Z,99259.25
2023-04-05T17:41:42.513Z,99262.34
2023-04-05T17:43:45.328Z,99258.34
2023-04-05T17:45:48.071Z,99259.50
2023-04-05T17:47:51.040Z,99259.41
2023-04-05T17:49:53.988Z,99263.31
2023-04-05T17:51:56.763Z,99264.00
2023-04-05T17:53:59.927Z,99266.34
2023-04-05T17:56:02.898Z,99266.56
2023-04-05T17:58:06.016Z,99276.34
2023-04-05T18:00:10.830Z,99284.53
2023-04-05T18:02:13.651Z,99274.22
2023-04-05T18:04:16.556Z,99288.69
2023-04-05T18:06:20.194Z,99284.66
2023-04-05T18:08:24.239Z,99277.91
2023-04-05T18:10:27.111Z,99276.41
2023-04-05T18:12:29.864Z,99276.09
2023-04-05T18:14:32.688Z,99286.53
2023-04-05T18:16:35.763Z,99281.72
2023-04-05T18:18:38.518Z,99281.59
2023-04-05T18:20:41.117Z,99283.00
2023-04-05T18:22:43.865Z,99287.59
2023-04-05T18:24:46.595Z,99287.84
2023-04-05T18:26:49.242Z,99294.84
2023-04-05T18:28:57.932Z,99295.66
2023-04-05T18:31:00.889Z,99291.16
2023-04-05T18:33:03.615Z,99297.69
2023-04-05T18:35:07.681Z,99295.63
2023-04-05T18:37:10.496Z,99301.16
2023-04-05T18:39:13.113Z,99300.69
2023-04-05T18:41:15.781Z,99300.22
2023-04-05T18:43:18.708Z,99298.63
2023-04-05T18:45:22.879Z,99295.41
2023-04-05T18:47:25.610Z,99294.56
2023-04-05T18:49:28.487Z,99294.94
2023-04-05T18:51:32.005Z,99298.03
2023-04-05T18:53:34.752Z,99297.94
2023-04-05T18:55:37.580Z,99291.00
2023-04-05T18:57:40.460Z,99293.63
2023-04-05T18:59:43.235Z,99300.22
2023-04-05T19:01:46.175Z,99296.84
2023-04-05T19:03:50.510Z,99304.19
2023-04-05T19:05:54.006Z,99298.91
2023-04-05T19:07:56.731Z,99297.63
2023-04-05T19:09:59.541Z,99299.47
2023-04-05T19:12:02.191Z,99298.56
2023-04-05T19:14:04.884Z,99314.16
2023-04-05T19:16:07.868Z,99298.31
2023-04-05T19:18:11.397Z,99309.66
2023-04-05T19:20:14.095Z,99309.53
2023-04-05T19:22:16.730Z,99299.41
2023-04-05T19:24:21.139Z,99303.44
2023-04-05T19:26:23.893Z,99306.41
2023-04-05T19:28:29.877Z,99306.63
2023-04-05T19:30:32.603Z,99300.50
2023-04-05T19:32:35.500Z,99305.53
2023-04-05T19:34:39.159Z,99311.72
2023-04-05T19:36:41.817Z,99307.38
2023-04-05T19:38:44.523Z,99305.75
2023-04-05T19:40:47.112Z,99299.78
2023-04-05T19:42:49.925Z,99311.94
2023-04-05T19:45:00.702Z,99316.66
2023-04-05T19:47:09.947Z,99312.75
2023-04-05T19:49:17.084Z,99312.63
2023-04-05T19:51:28.793Z,99318.94
2023-04-05T19:53:39.761Z,99314.44
2023-04-05T19:55:42.501Z,99310.53
2023-04-05T19:57:45.019Z,99320.06
2023-04-05T19:59:47.694Z,99324.28
2023-04-05T20:01:51.061Z,99314.75
2023-04-05T20:03:53.805Z,99326.00
2023-04-05T20:06:17.055Z,99323.44
2023-04-05T20:08:19.895Z,99332.03
2023-04-05T20:10:41.004Z,99329.63
2023-04-05T20:12:43.701Z,99333.25
2023-04-05T20:14:46.864Z,99330.38
2023-04-05T20:16:49.970Z,99334.09
2023-04-05T20:18:54.354Z,99331.50
2023-04-05T20:20:57.136Z,99335.25
2023-04-05T20:22:59.825Z,99332.59
2023-04-05T20:25:31.979Z,99334.22
2023-04-05T20:27:34.450Z,99331.56
2023-04-05T20:29:36.982Z,99335.81
2023-04-05T20:31:40.260Z,99340.72
2023-04-05T20:33:47.429Z,99341.69
2023-04-05T20:35:51.591Z,99338.97
2023-04-05T20:37:55.666Z,99335.63
2023-04-05T20:39:58.673Z,99336.13
2023-04-05T20:42:01.865Z,99338.22
2023-04-05T20:44:04.680Z,99346.19
2023-04-05T20:46:08.292Z,99344.09
2023-04-05T20:48:14.151Z,99341.53
2023-04-05T20:50:17.793Z,99352.84
2023-04-05T20:52:21.036Z,99343.31
2023-04-05T20:54:24.400Z,99350.28
2023-04-05T20:56:40.742Z,99357.53
2023-04-05T20:58:43.471Z,99353.81
2023-04-05T21:00:46.067Z,99361.75
2023-04-05T21:02:49.089Z,99368.09
2023-04-05T21:04:51.860Z,99359.19
2023-04-05T21:06:54.506Z,99368.53
2023-04-05T21:08:57.265Z,99361.75
2023-04-05T21:11:00.217Z,99365.16
2023-04-05T21:13:02.862Z,99365.84
2023-04-05T21:15:06.097Z,99366.00
2023-04-05T21:17:08.818Z,99363.25
2023-04-05T21:19:11.430Z,99368.56
2023-04-05T21:21:14.226Z,99363.75
2023-04-05T21:23:27.870Z,99370.22
2023-04-05T21:25:33.658Z,99354.03
2023-04-05T21:27:36.437Z,99359.38
2023-04-05T21:29:39.123Z,99352.59
2023-04-05T21:31:41.930Z,99358.09
2023-04-05T21:33:44.599Z,99361.47
2023-04-05T21:35:47.321Z,99362.63
2023-04-05T21:37:50.727Z,99361.31
2023-04-05T21:39:53.306Z,99361.13
2023-04-05T21:41:56.264Z,99358.72
2023-04-05T21:43:58.935Z,99357.09
2023-04-05T21:46:01.632Z,99360.63
2023-04-05T21:48:04.590Z,99346.91
2023-04-05T21:50:08.440Z,99351.09
2023-04-05T21:52:11.221Z,99354.50
2023-04-05T21:54:13.883Z,99344.66
2023-04-05T21:56:16.819Z,99348.03
2023-04-05T21:58:19.601Z,99351.59
2023-04-05T22:00:22.570Z,99357.41
2023-04-05T22:02:25.469Z,99348.53
2023-04-05T22:04:29.275Z,99351.25
2023-04-05T22:06:31.974Z,99356.25
2023-04-05T22:08:34.626Z,99348.19
2023-04-05T22:10:37.481Z,99354.50
2023-04-05T22:12:40.249Z,99352.72
2023-04-05T22:14:42.918Z,99360.47
2023-04-05T22:16:45.653Z,99351.75
2023-04-05T22:18:48.262Z,99362.56
2023-04-05T22:20:50.912Z,99349.97
2023-04-05T22:22:53.752Z,99358.50
2023-04-05T22:24:56.438Z,99365.75
2023-04-05T22:26:59.222Z,99365.44
2023-04-05T22:29:02.720Z,99362.53
2023-04-05T22:31:05.463Z,99367.84
2023-04-05T22:33:08.619Z,99364.44
2023-04-05T22:35:11.380Z,99364.59
2023-04-05T22:37:14.086Z,99373.44
2023-04-05T22:39:16.796Z,99366.34
2023-04-05T22:41:19.549Z,99362.13
2023-04-05T22:43:22.364Z,99371.84
2023-04-05T22:45:28.829Z,99365.84
2023-04-05T22:47:31.652Z,99367.78
2023-04-05T22:49:34.415Z,99375.53
2023-04-05T22:51:37.112Z,99380.84
2023-04-05T22:53:43.431Z,99378.28
2023-04-05T22:55:46.237Z,99384.56
2023-04-05T22:57:49.933Z,99377.47
2023-04-05T22:59:52.599Z,99373.75
2023-04-05T23:01:55.370Z,99379.38
2023-04-05T23:03:58.049Z,99381.94
2023-04-05T23:06:00.808Z,99384.81
2023-04-05T23:08:04.130Z,99382.41
2023-04-05T23:10:07.412Z,99379.66
2023-04-05T23:12:11.331Z,99386.25
2023-04-05T23:14:14.083Z,99393.47
2023-04-05T23:16:17.187Z,99384.97
2023-04-05T23:18:23.192Z,99393.19
2023-04-05T23:20:25.787Z,99395.25
2023-04-05T23:22:28.500Z,99384.91
2023-04-05T23:24:31.366Z,99380.25
2023-04-05T23:26:34.537Z,99382.50
2023-04-05T23:28:37.256Z,99383.09
2023-04-05T23:30:40.019Z,99384.88
2023-04-05T23:32:42.866Z,99383.38
2023-04-05T23:34:45.740Z,99381.28
2023-04-05T23:36:48.402Z,99389.81
2023-04-05T23:38:51.310Z,99384.16
2023-04-05T23:40:53.925Z,99386.41
2023-04-05T23:42:56.721Z,99383.47
2023-04-05T23:45:02.136Z,99384.59
2023-04-05T23:47:05.842Z,99386.84
2023-04-05T23:49:08.799Z,99385.69
2023-04-05T23:51:11.899Z,99384.97
2023-04-05T23:53:14.590Z,99384.47
2023-04-05T23:55:17.270Z,99390.59
2023-04-05T23:57:19.890Z,99380.78
2023-04-05T23:59:22.630Z,99392.31
